Latest Coastal Weather Observations for Cooktown

IDQ60701

Issued at 7:42 am EST Sunday 23 February 2020 (issued every 10 minutes, with the page automatically refreshed every 10 minutes)

About coastal observations | Map of coastal stations | Coastal observations for QLD | Marine services | Other Formats
Station Details ID: 031209 Name: COOKTOWN AIRPORT Lat: -15.45 Lon: 145.19 Height: 4.8 m
Data from the previous 72 hours. | See also: Recent months at Cooktown
Date/Time
EST
Wind Sea
Height
m
Swell Vis
km
Cloud Weather Temp
°C
Press
hPa
Rain since
9am
mm
Dir  Spd
kts
Gust
kts
Height
m
Period
s
Dir
23/07:30am CALM 0 0 - - - - 10 Partly cloudy - 25.3 1008.6 34.6
23/07:18am CALM 0 0 - - - - 10 Partly cloudy - 25.4 1008.7 34.6
23/07:00am CALM 0 0 - - - - 10 Partly cloudy - 25.3 1008.4 34.6
23/06:30am CALM 0 0 - - - - 10 Partly cloudy - 25.1 1008.0 34.6
23/06:00am CALM 0 0 - - - - 10 Mostly cloudy - 25.1 1007.6 34.6
23/05:30am NW 4 5 - - - - 10 Partly cloudy - 25.2 1007.5 34.6
23/05:00am CALM 0 0 - - - - 10 Partly cloudy - 25.3 1007.2 34.6
23/04:43am CALM 0 0 - - - - 10 Partly cloudy - 25.3 1007.2 34.6
23/04:30am CALM 0 0 - - - - 10 Partly cloudy - 25.3 1007.1 34.6
23/04:00am CALM 0 0 - - - - 10 Partly cloudy - 25.2 1006.9 34.6
23/03:30am SW 1 4 - - - - 10 Partly cloudy - 25.4 1007.0 34.6
23/03:00am CALM 0 0 - - - - 10 - Recent precip. 25.3 1006.8 34.6
23/02:30am CALM 0 0 - - - - 10 Partly cloudy - 25.6 1007.2 34.4
23/02:03am CALM 0 0 - - - - 10 Partly cloudy - 25.8 1007.8 34.4
23/02:00am CALM 0 0 - - - - 10 Partly cloudy - 25.8 1007.8 34.4
23/01:30am CALM 0 0 - - - - 10 Partly cloudy - 25.9 1008.1 34.4
23/01:28am CALM 0 4 - - - - 10 Partly cloudy - 25.9 1008.2 34.4
23/01:00am CALM 0 0 - - - - 10 Partly cloudy - 25.8 1008.8 34.4
23/12:57am CALM 0 0 - - - - 10 Partly cloudy - 25.9 1008.8 34.4
23/12:30am N 5 9 - - - - 1 Partly cloudy - 26.1 1009.1 28.8
23/12:24am NW 4 7 - - - - 5 Partly cloudy - 26.2 1009.1 26.6
23/12:22am NW 4 7 - - - - 10 Partly cloudy - 26.3 1009.1 25.4
23/12:17am W 5 7 - - - - 10 Partly cloudy - 26.3 1009.1 25.4
23/12:07am WNW 5 6 - - - - 5 Partly cloudy - 26.4 1009.2 25.2
23/12:00am WNW 5 6 - - - - 10 Mostly cloudy Recent precip. 26.4 1009.2 24.6
 
Date/Time
EST
Wind Sea
Height
m
Swell Vis
km
Cloud Weather Temp
°C
Press
hPa
Rain since
9am
mm
Dir  Spd
kts
Gust
kts
Height
m
Period
s
Dir
22/11:30pm WSW 2 5 - - - - 7 Partly cloudy - 26.5 1009.4 24.6
22/11:00pm WSW 2 4 - - - - 10 Partly cloudy - 26.6 1009.6 24.2
22/10:30pm NNW 4 4 - - - - 10 Partly cloudy - 26.9 1009.4 24.2
22/10:19pm NNE 3 5 - - - - 6 Partly cloudy - 26.9 1009.4 24.2
22/10:04pm CALM 0 4 - - - - 5 Partly cloudy - 26.8 1009.1 24.2
22/10:00pm CALM 0 0 - - - - 6 Partly cloudy - 26.9 1009.2 24.2
22/09:30pm CALM 0 0 - - - - 10 Partly cloudy - 26.9 1008.8 24.2
22/09:00pm NNW 3 4 - - - - 10 Partly cloudy - 26.9 1008.4 24.2
22/08:48pm N 3 5 - - - - 10 Partly cloudy - 26.9 1008.3 24.2
22/08:30pm N 4 5 - - - - 10 Partly cloudy - 27.3 1008.1 24.2
22/08:10pm ENE 4 5 - - - - 10 Partly cloudy - 27.3 1007.7 24.2
22/08:00pm ENE 5 7 - - - - 10 Partly cloudy - 27.3 1007.7 24.2
22/07:55pm ENE 6 8 - - - - 10 Partly cloudy - 27.3 1007.5 24.2
22/07:30pm E 2 4 - - - - 10 Partly cloudy - 26.9 1007.4 24.2
22/07:28pm E 1 4 - - - - 10 Partly cloudy - 26.9 1007.5 24.2
22/07:00pm SE 3 4 - - - - 10 Partly cloudy - 27.1 1007.3 24.2
22/06:30pm E 3 5 - - - - 10 Partly cloudy - 27.5 1007.2 24.2
22/06:00pm ENE 5 9 - - - - 10 Cloudy - 27.7 1007.1 24.2
22/05:30pm E 10 15 - - - - 10 Partly cloudy - 28.3 1006.5 24.2
22/05:00pm E 9 14 - - - - 10 - - 29.4 1006.6 24.2
22/04:30pm E 8 12 - - - - 10 Partly cloudy - 28.9 1006.6 24.0
22/04:00pm E 8 12 - - - - 10 Partly cloudy - 28.5 1006.4 24.0
22/03:30pm ESE 6 8 - - - - 10 Partly cloudy - 28.4 1006.7 24.0
22/03:00pm ESE 6 8 - - - - 10 Cloudy Recent precip. 28.1 1006.8 24.0
22/02:39pm ESE 7 11 - - - - 10 Partly cloudy - 28.1 1007.0 24.0
22/02:31pm ESE 7 11 - - - - 6 Partly cloudy - 27.8 1006.9 24.0
22/02:30pm ESE 7 11 - - - - 6 Partly cloudy - 27.7 1006.9 24.0
22/02:22pm E 6 11 - - - - 5 Partly cloudy - 27.6 1007.2 24.0
22/02:14pm SE 4 7 - - - - 10 Partly cloudy - 27.7 1007.3 23.2
22/02:00pm SSE 5 9 - - - - 0.6 Partly cloudy - 27.2 1007.6 23.2
22/01:31pm E 5 7 - - - - 5 Partly cloudy - 28.0 1007.8 6.4
22/01:30pm E 5 6 - - - - 8 Partly cloudy - 28.1 1007.8 6.0
22/01:12pm SSE 5 7 - - - - 10 Partly cloudy - 28.1 1008.2 5.4
22/01:00pm SW 2 5 - - - - 5 Partly cloudy - 27.2 1008.4 5.4
22/12:42pm NNW 2 5 - - - - 4 Partly cloudy - 26.8 1008.8 4.4
22/12:38pm NNW 4 6 - - - - 10 Partly cloudy - 26.8 1008.8 3.6
22/12:30pm NNW 5 7 - - - - 7 Partly cloudy - 26.6 1008.9 3.4
22/12:20pm NW 5 8 - - - - 5 Partly cloudy - 26.7 1008.9 3.0
22/12:08pm NNW 4 5 - - - - 9 Partly cloudy - 27.9 1008.8 2.2
22/12:05pm N 3 5 - - - - 8 Partly cloudy - 27.9 1008.8 2.2
22/12:00pm NE 5 7 - - - - 6 Cloudy - 28.1 1008.9 2.0
22/11:42am E 6 8 - - - - 5 Partly cloudy - 28.6 1009.1 2.0
22/11:35am E 6 8 - - - - 10 Partly cloudy - 28.7 1009.4 2.0
22/11:30am E 5 8 - - - - 8 Partly cloudy - 28.6 1009.4 2.0
22/11:19am E 7 8 - - - - 5 Partly cloudy - 28.3 1009.5 2.0
22/11:00am E 6 8 - - - - 10 Partly cloudy - 28.3 1009.7 2.0
22/10:42am ESE 7 9 - - - - 10 Partly cloudy - 28.3 1009.8 2.0
22/10:30am E 7 9 - - - - 10 Partly cloudy - 28.6 1009.8 2.0
22/10:24am ESE 4 9 - - - - 10 Partly cloudy - 28.6 1009.8 2.0
22/10:00am E 4 6 - - - - 10 Partly cloudy - 28.5 1009.9 1.8
22/09:37am SSE 3 5 - - - - 10 Partly cloudy - 27.7 1009.8 1.8
22/09:35am S 3 4 - - - - 10 Partly cloudy - 27.7 1009.9 1.8
22/09:30am S 2 4 - - - - 10 Partly cloudy - 27.2 1009.9 1.8
22/09:23am CALM 0 0 - - - - 4 Partly cloudy - 26.4 1009.9 1.8
22/09:22am CALM 0 0 - - - - 3 Partly cloudy - 26.4 1009.9 1.8
22/09:00am NNW 2 6 - - - - 0.5 Cloudy Rain 25.7 1009.8 62.2
22/08:51am CALM 0 4 - - - - 5 Partly cloudy - 25.9 1009.9 58.2
22/08:30am SW 1 3 - - - - 10 Partly cloudy - 25.6 1009.6 58.0
22/08:00am CALM 0 0 - - - - 10 - - 25.3 1009.4 57.8
22/07:30am CALM 0 0 - - - - 10 - - 25.0 1009.0 57.8
22/07:00am CALM 0 0 - - - - 10 Partly cloudy - 24.8 1008.7 57.8
22/06:37am ESE 3 4 - - - - 10 Partly cloudy - 24.6 1008.4 57.8
22/06:30am ESE 4 5 - - - - 8 Partly cloudy - 24.5 1008.3 57.8
22/06:18am ESE 5 7 - - - - 3 Partly cloudy - 24.9 1008.2 57.4
22/06:07am E 5 8 - - - - 3 Partly cloudy - 25.0 1008.2 56.2
22/06:05am E 5 7 - - - - 4 Partly cloudy - 25.1 1008.3 55.8
22/06:00am ESE 5 7 - - - - 6 Cloudy Rain 25.3 1008.1 54.8
22/05:30am SE 5 11 - - - - 0.4 Partly cloudy - 25.1 1008.1 41.4
22/05:08am CALM 0 0 - - - - 5 Cloudy - 24.8 1007.6 31.2
22/05:00am CALM 0 0 - - - - 10 Partly cloudy - 24.7 1007.5 31.2
22/04:54am CALM 0 1 - - - - 10 Partly cloudy - 24.7 1007.5 31.2
22/04:30am S 3 4 - - - - 10 Partly cloudy - 24.7 1007.3 31.2
22/04:29am S 3 4 - - - - 10 Partly cloudy - 24.6 1007.4 31.2
22/04:23am S 4 6 - - - - 8 Partly cloudy - 24.6 1007.4 31.2
22/04:05am S 4 5 - - - - 5 Partly cloudy - 24.6 1007.6 31.0
22/04:00am S 4 6 - - - - 10 Partly cloudy - 24.7 1007.5 31.0
22/03:57am SSE 5 6 - - - - 10 Partly cloudy - 24.7 1007.5 31.0
22/03:30am SSE 6 9 - - - - 5 Partly cloudy - 24.8 1007.4 30.6
22/03:07am WNW 3 5 - - - - 2 Partly cloudy - 26.1 1007.5 28.0
22/03:02am NW 4 5 - - - - 4 Partly cloudy - 26.1 1007.6 27.6
22/03:00am NW 4 5 - - - - 8 Cloudy Rain 26.2 1007.6 27.0
22/02:30am CALM 0 0 - - - - 10 Partly cloudy - 26.2 1007.8 26.8
22/02:23am CALM 0 3 - - - - 10 Partly cloudy - 26.1 1007.9 26.8
22/02:10am E 3 5 - - - - 10 Partly cloudy - 26.0 1007.8 26.8
22/02:00am E 6 8 - - - - 10 Partly cloudy - 26.0 1007.9 26.8
22/01:50am E 8 10 - - - - 10 Partly cloudy - 25.9 1008.0 26.8
22/01:31am ENE 5 16 - - - - 5 Partly cloudy - 26.1 1008.2 26.2
22/01:30am ENE 3 13 - - - - 6 Partly cloudy - 26.3 1008.3 26.2
22/01:27am ENE 1 7 - - - - 9 Partly cloudy - 26.5 1008.3 26.0
22/01:15am SW 1 4 - - - - 2 Partly cloudy - 26.5 1008.2 25.8
22/01:00am S 1 4 - - - - 1 Partly cloudy - 26.4 1008.4 23.4
22/12:30am N 3 5 - - - - 2 Partly cloudy - 26.6 1008.6 21.2
22/12:22am N 3 5 - - - - 5 Partly cloudy - 26.7 1008.9 19.4
22/12:14am N 4 6 - - - - 8 Partly cloudy - 26.6 1009.0 19.2
22/12:00am WNW 4 6 - - - - 1 Cloudy Rain 26.6 1009.1 18.8
 
Date/Time
EST
Wind Sea
Height
m
Swell Vis
km
Cloud Weather Temp
°C
Press
hPa
Rain since
9am
mm
Dir  Spd
kts
Gust
kts
Height
m
Period
s
Dir
21/11:30pm WNW 2 5 - - - - 4 Partly cloudy - 26.7 1009.4 14.6
21/11:00pm CALM 0 0 - - - - 10 Partly cloudy - 26.9 1009.8 13.2
21/10:49pm WSW 2 4 - - - - 10 Partly cloudy - 27.0 1009.8 13.2
21/10:33pm S 2 4 - - - - 5 Partly cloudy - 27.0 1009.8 13.2
21/10:30pm SSE 1 4 - - - - 8 Partly cloudy - 27.0 1009.8 13.0
21/10:28pm SSE 1 4 - - - - 9 Partly cloudy - 27.0 1009.8 13.0
21/10:27pm CALM 0 4 - - - - 10 Partly cloudy - 27.1 1009.8 13.0
21/10:16pm CALM 0 3 - - - - 2 Partly cloudy - 27.0 1009.7 12.8
21/10:03pm S 3 4 - - - - 3 Partly cloudy - 27.0 1009.6 11.2
21/10:00pm S 4 5 - - - - 3 Cloudy - 26.9 1009.6 10.8
21/09:55pm SSW 4 5 - - - - 5 Cloudy - 27.0 1009.6 10.6
21/09:30pm CALM 0 0 - - - - 10 Partly cloudy - 27.0 1009.2 9.8
21/09:26pm CALM 0 0 - - - - 10 Partly cloudy - 27.0 1009.1 9.8
21/09:00pm CALM 0 3 - - - - 10 Partly cloudy - 26.8 1008.8 9.8
21/08:30pm SE 5 7 - - - - 10 Partly cloudy - 27.0 1008.3 9.8
21/08:02pm NNE 3 4 - - - - 10 Partly cloudy - 27.5 1007.9 9.8
21/08:00pm NNE 3 4 - - - - 10 Partly cloudy - 27.5 1008.0 9.8
21/07:30pm ENE 3 4 - - - - 10 Partly cloudy - 27.6 1008.0 9.8
21/07:00pm ENE 4 5 - - - - 10 Partly cloudy - 27.9 1007.6 9.8
21/06:30pm E 6 8 - - - - 10 - - 28.2 1007.1 9.8
21/06:00pm E 7 9 - - - - 10 Mostly clear - 28.6 1006.7 9.8
21/05:30pm E 6 9 - - - - 10 - - 29.0 1006.2 9.8
21/05:00pm E 7 10 - - - - 10 - - 29.2 1006.0 9.8
21/04:30pm E 9 12 - - - - 10 - - 29.1 1006.0 9.8
21/04:00pm E 10 14 - - - - 10 - - 29.1 1005.9 9.8
21/03:30pm NE 5 7 - - - - 10 Partly cloudy - 29.5 1006.0 9.8
21/03:00pm ENE 10 13 - - - - 10 Cloudy - 30.4 1006.4 9.8
21/02:30pm E 11 14 - - - - 10 Partly cloudy - 30.8 1006.6 9.8
21/02:00pm E 12 17 - - - - 10 Partly cloudy - 31.1 1006.7 9.8
21/01:30pm ESE 11 15 - - - - 10 - - 30.0 1007.2 9.6
21/01:00pm E 9 11 - - - - 10 - - 29.3 1008.0 9.6
21/12:30pm E 2 4 - - - - 10 - - 27.9 1008.2 9.6
21/12:00pm ENE 3 5 - - - - 10 Partly cloudy Recent precip. 27.1 1008.7 9.6
21/11:30am CALM 0 0 - - - - 10 Partly cloudy - 26.3 1009.0 9.4
21/11:00am SE 1 3 - - - - 10 Partly cloudy - 25.8 1009.1 9.0
21/10:59am SE 2 4 - - - - 10 Partly cloudy - 25.7 1009.1 9.0
21/10:30am NNE 11 19 - - - - 2 Partly cloudy - 25.9 1009.5 2.0
21/10:28am NNE 10 19 - - - - 3 Partly cloudy - 26.4 1009.5 1.0
21/10:00am N 7 10 - - - - 10 Partly cloudy - 29.8 1009.3 0.0
21/09:30am ENE 6 8 - - - - 10 Partly cloudy - 31.3 1009.1 0.0
21/09:00am NNE 4 6 - - - - 10 Cloudy - 29.7 1009.1 0.0
21/08:30am CALM 0 0 - - - - 10 - - 29.7 1008.8 0.0
21/08:00am NW 2 4 - - - - 10 - - 28.0 1008.5 0.0
21/07:30am CALM 0 4 - - - - 10 - - 26.5 1008.3 0.0
21/07:00am CALM 0 0 - - - - 10 - - 25.6 1007.8 0.0
21/06:30am CALM 0 0 - - - - 10 - - 25.1 1007.3 0.0
21/06:00am CALM 0 0 - - - - 10 - - 25.3 1007.1 0.0
21/05:30am CALM 0 0 - - - - 10 - - 25.2 1007.1 0.0
21/05:00am CALM 0 0 - - - - 10 - - 25.0 1006.5 0.0
21/04:30am CALM 0 0 - - - - 10 - - 25.1 1006.6 0.0
21/04:00am CALM 0 0 - - - - 10 - - 24.9 1006.8 0.0
21/03:30am CALM 0 0 - - - - 10 - - 25.4 1006.5 0.0
21/03:00am CALM 0 0 - - - - 10 Mostly clear - 25.6 1006.5 0.0
21/02:30am CALM 0 0 - - - - 10 - - 25.6 1006.8 0.0
21/02:00am CALM 0 0 - - - - 10 - - 25.7 1006.9 0.0
21/01:30am CALM 0 0 - - - - 10 Partly cloudy - 25.8 1007.2 0.0
21/01:00am CALM 0 0 - - - - 10 Partly cloudy - 25.8 1007.6 0.0
21/12:30am CALM 0 0 - - - - 10 - - 25.7 1008.1 0.0
21/12:00am CALM 0 0 - - - - 10 - - 26.0 1008.7 0.0
 
Date/Time
EST
Wind Sea
Height
m
Swell Vis
km
Cloud Weather Temp
°C
Press
hPa
Rain since
9am
mm
Dir  Spd
kts
Gust
kts
Height
m
Period
s
Dir
20/11:30pm CALM 0 0 - - - - 10 - - 26.1 1008.8 0.0
20/11:00pm CALM 0 0 - - - - 10 - - 26.2 1009.1 0.0
20/10:30pm W 1 4 - - - - 10 Partly cloudy - 26.3 1009.1 0.0
20/10:00pm W 2 4 - - - - 10 - - 26.4 1008.9 0.0
20/09:30pm WNW 4 5 - - - - 10 - - 26.5 1008.6 0.0
20/09:00pm CALM 0 0 - - - - 10 - - 26.7 1008.3 0.0
20/08:30pm WNW 3 5 - - - - 10 - - 26.7 1007.8 0.0
20/08:00pm WNW 4 6 - - - - 10 - - 27.0 1007.4 0.0
20/07:30pm WNW 4 5 - - - - 10 - - 27.5 1007.1 0.0
20/07:00pm NE 2 3 - - - - 10 Partly cloudy - 28.6 1006.6 0.0
20/06:30pm NE 3 5 - - - - 10 - - 29.0 1006.1 0.0
20/06:00pm ENE 4 5 - - - - 10 Mostly clear - 29.3 1005.4 0.0
20/05:30pm ENE 4 6 - - - - 10 - - 29.5 1005.1 0.0
20/05:00pm ENE 5 7 - - - - 10 - - 29.6 1005.1 0.0
20/04:30pm E 5 6 - - - - 10 - - 29.8 1005.3 0.0
20/04:00pm ENE 5 7 - - - - 10 - - 30.0 1005.5 0.0
20/03:30pm ENE 6 9 - - - - 10 Partly cloudy - 30.1 1005.5 0.0
20/03:00pm ENE 7 10 - - - - 10 - - 30.1 1005.3 0.0
20/02:30pm E 9 13 - - - - 10 Partly cloudy - 30.0 1005.5 0.0
20/02:00pm ENE 11 15 - - - - 10 - - 30.0 1005.5 0.0
20/01:30pm E 10 13 - - - - 10 - - 29.9 1006.0 0.0
20/01:00pm E 10 14 - - - - 10 Partly cloudy - 30.7 1006.3 0.0
20/12:30pm ENE 10 15 - - - - 10 - - 32.2 1006.4 0.0
20/12:00pm E 9 12 - - - - 10 - - 31.7 1006.8 0.0
20/11:30am E 10 14 - - - - 10 - - 31.7 1007.2 0.0
20/11:00am E 9 13 - - - - 10 Partly cloudy - 32.0 1007.2 0.0
20/10:30am E 1 5 - - - - 10 Partly cloudy - 30.9 1007.6 0.0
20/10:00am SE 4 5 - - - - 10 Partly cloudy - 31.5 1007.8 0.0
20/09:37am ENE 2 5 - - - - 10 Partly cloudy - 31.2 1008.0 0.0
20/09:30am E 3 6 - - - - 10 Partly cloudy - 31.0 1008.0 0.0
20/09:16am SSE 4 5 - - - - 10 Partly cloudy - 30.8 1008.0 0.0
20/09:00am SE 3 6 - - - - 10 Mostly clear - 29.9 1008.0 0.0
20/08:30am SSW 1 5 - - - - 10 - - 28.9 1008.0 0.0
20/08:00am SW 3 5 - - - - 10 Partly cloudy - 27.7 1007.7 0.0
20/07:59am SW 3 5 - - - - 10 Partly cloudy - 27.6 1007.7 0.0
20/07:45am W 2 4 - - - - 10 Partly cloudy - 26.6 1007.3 0.0

Other formats

Comma delimited format used in spreadsheet applications
http://www.bom.gov.au/fwo/IDQ60701/IDQ60701.95283.axf

JavaScript Object Notation format (JSON) in row-major order
http://www.bom.gov.au/fwo/IDQ60701/IDQ60701.95283.json

Data quality

Most of these data are generated automatically and are frequently updated. Quality checks on data are not normally performed. It is possible for incorrect values to appear. Refer to information at About Latest Weather Observations and please check the disclaimer before using these data.